createdAt,value
2023-03-20T00:00:37.050Z,1016.96
2023-03-20T00:01:37.029Z,1017.00
2023-03-20T00:02:37.019Z,1017.02
2023-03-20T00:03:37.049Z,1017.10
2023-03-20T00:04:37.048Z,1017.06
2023-03-20T00:05:37.175Z,1017.04
2023-03-20T00:06:36.968Z,1017.09
2023-03-20T00:07:36.967Z,1017.10
2023-03-20T00:08:36.952Z,1017.12
2023-03-20T00:09:36.948Z,1017.13
2023-03-20T00:10:36.911Z,1017.12
2023-03-20T00:11:36.912Z,1017.12
2023-03-20T00:12:36.890Z,1017.15
2023-03-20T00:13:36.896Z,1017.16
2023-03-20T00:14:36.861Z,1017.18
2023-03-20T00:15:37.003Z,1017.17
2023-03-20T00:16:36.883Z,1017.18
2023-03-20T00:17:36.812Z,1017.18
2023-03-20T00:18:36.824Z,1017.19
2023-03-20T00:19:36.791Z,1017.23
2023-03-20T00:20:37.014Z,1017.22
2023-03-20T00:21:36.762Z,1017.25
2023-03-20T00:22:36.768Z,1017.21
2023-03-20T00:23:36.773Z,1017.24
2023-03-20T00:24:36.721Z,1017.28
2023-03-20T00:25:36.947Z,1017.22
2023-03-20T00:26:36.720Z,1017.24
2023-03-20T00:27:36.673Z,1017.19
2023-03-20T00:28:36.702Z,1017.24
2023-03-20T00:29:36.655Z,1017.25
2023-03-20T00:30:36.653Z,1017.21
2023-03-20T00:31:36.662Z,1017.27
2023-03-20T00:32:36.651Z,1017.30
2023-03-20T00:33:36.622Z,1017.24
2023-03-20T00:34:36.603Z,1017.21
2023-03-20T00:35:36.890Z,1017.24
2023-03-20T00:36:36.564Z,1017.22
2023-03-20T00:37:36.544Z,1017.27
2023-03-20T00:38:36.549Z,1017.26
2023-03-20T00:39:36.542Z,1017.24
2023-03-20T00:40:36.546Z,1017.28
2023-03-20T00:41:36.484Z,1017.23
2023-03-20T00:42:36.476Z,1017.28
2023-03-20T00:43:36.475Z,1017.26
2023-03-20T00:44:36.454Z,1017.31
2023-03-20T00:45:36.656Z,1017.30
2023-03-20T00:46:36.476Z,1017.33
2023-03-20T00:47:36.404Z,1017.35
2023-03-20T00:48:36.416Z,1017.33
2023-03-20T00:49:36.392Z,1017.32
2023-03-20T00:50:36.376Z,1017.28
2023-03-20T00:51:36.372Z,1017.25
2023-03-20T00:52:36.344Z,1017.26
2023-03-20T00:53:36.345Z,1017.27
2023-03-20T00:54:36.340Z,1017.26
2023-03-20T00:55:36.470Z,1017.24
2023-03-20T00:56:36.311Z,1017.21
2023-03-20T00:57:36.277Z,1017.17
2023-03-20T00:58:36.279Z,1017.14
2023-03-20T00:59:36.262Z,1017.10
2023-03-20T01:00:36.260Z,1017.12
2023-03-20T01:01:36.234Z,1017.10
2023-03-20T01:02:36.232Z,1017.14
2023-03-20T01:03:36.207Z,1017.13
2023-03-20T01:04:36.189Z,1017.14
2023-03-20T01:05:36.404Z,1017.15
2023-03-20T01:06:36.152Z,1017.14
2023-03-20T01:07:36.140Z,1017.07
2023-03-20T01:08:36.167Z,1017.04
2023-03-20T01:09:36.111Z,1017.03
2023-03-20T01:10:36.107Z,1017.02
2023-03-20T01:11:36.088Z,1016.99
2023-03-20T01:12:36.067Z,1016.99
2023-03-20T01:13:36.077Z,1016.97
2023-03-20T01:14:36.051Z,1016.96
2023-03-20T01:15:36.236Z,1017.00
2023-03-20T01:16:36.195Z,1016.98
2023-03-20T01:17:35.997Z,1016.96
2023-03-20T01:18:36.019Z,1017.04
2023-03-20T01:19:35.976Z,1017.04
2023-03-20T01:20:35.965Z,1017.05
2023-03-20T01:21:35.948Z,1017.02
2023-03-20T01:22:35.942Z,1017.03
2023-03-20T01:23:35.939Z,1017.01
2023-03-20T01:24:35.909Z,1016.98
2023-03-20T01:25:36.132Z,1016.96
2023-03-20T01:26:35.912Z,1016.93
2023-03-20T01:27:35.893Z,1016.95
2023-03-20T01:28:35.877Z,1016.90
2023-03-20T01:29:35.835Z,1016.87
2023-03-20T01:30:35.825Z,1016.87
2023-03-20T01:31:35.832Z,1016.90
2023-03-20T01:32:35.849Z,1016.89
2023-03-20T01:33:35.803Z,1016.90
2023-03-20T01:34:35.768Z,1016.90
2023-03-20T01:35:35.945Z,1016.89
2023-03-20T01:36:35.736Z,1016.86
2023-03-20T01:37:35.728Z,1016.82
2023-03-20T01:38:35.743Z,1016.83
2023-03-20T01:39:35.716Z,1016.78
2023-03-20T01:40:35.687Z,1016.84
2023-03-20T01:41:35.677Z,1016.80
2023-03-20T01:42:35.668Z,1016.79
2023-03-20T01:43:35.662Z,1016.77
2023-03-20T01:44:35.646Z,1016.76
2023-03-20T01:45:35.932Z,1016.75
2023-03-20T01:46:35.608Z,1016.72
2023-03-20T01:47:35.590Z,1016.73
2023-03-20T01:48:35.610Z,1016.75
2023-03-20T01:49:35.572Z,1016.76
2023-03-20T01:50:35.559Z,1016.76
2023-03-20T01:51:35.539Z,1016.77
2023-03-20T01:52:35.538Z,1016.79
2023-03-20T01:53:35.527Z,1016.78
2023-03-20T01:54:35.501Z,1016.79
2023-03-20T01:55:35.736Z,1016.81
2023-03-20T01:56:35.482Z,1016.78
2023-03-20T01:57:35.463Z,1016.84
2023-03-20T01:58:35.469Z,1016.88
2023-03-20T01:59:35.434Z,1016.91
2023-03-20T02:00:35.431Z,1016.92
2023-03-20T02:01:35.512Z,1016.90
2023-03-20T02:02:35.400Z,1016.90
2023-03-20T02:03:35.394Z,1016.99
2023-03-20T02:04:35.407Z,1016.96
2023-03-20T02:05:35.577Z,1016.96
2023-03-20T02:06:35.347Z,1016.96
2023-03-20T02:07:35.323Z,1016.97
2023-03-20T02:08:35.341Z,1017.01
2023-03-20T02:09:35.294Z,1017.04
2023-03-20T02:10:35.290Z,1017.09
2023-03-20T02:11:35.273Z,1017.03
2023-03-20T02:12:35.263Z,1017.08
2023-03-20T02:13:35.261Z,1017.09
2023-03-20T02:14:35.233Z,1017.08
2023-03-20T02:15:35.427Z,1017.11
2023-03-20T02:16:35.221Z,1017.10
2023-03-20T02:17:35.194Z,1017.07
2023-03-20T02:18:35.193Z,1017.06
2023-03-20T02:19:35.175Z,1017.01
2023-03-20T02:20:35.162Z,1016.99
2023-03-20T02:21:35.137Z,1017.00
2023-03-20T02:22:35.126Z,1016.95
2023-03-20T02:23:35.123Z,1016.94
2023-03-20T02:24:35.104Z,1016.92
2023-03-20T02:25:35.321Z,1016.93
2023-03-20T02:26:35.074Z,1016.92
2023-03-20T02:27:35.070Z,1016.93
2023-03-20T02:28:36.066Z,1016.92
2023-03-20T02:29:35.028Z,1016.93
2023-03-20T02:30:35.116Z,1016.90
2023-03-20T02:31:35.025Z,1016.90
2023-03-20T02:32:35.068Z,1016.91
2023-03-20T02:33:35.036Z,1016.91
2023-03-20T02:34:34.965Z,1016.92
2023-03-20T02:35:35.110Z,1016.89
2023-03-20T02:36:34.933Z,1016.89
2023-03-20T02:37:34.913Z,1016.88
2023-03-20T02:38:34.927Z,1016.92
2023-03-20T02:39:34.891Z,1016.90
2023-03-20T02:40:34.892Z,1016.92
2023-03-20T02:41:34.896Z,1016.95
2023-03-20T02:42:34.869Z,1017.01
2023-03-20T02:43:34.862Z,1017.04
2023-03-20T02:44:34.833Z,1017.09
2023-03-20T02:45:35.118Z,1017.06
2023-03-20T02:46:34.888Z,1017.10
2023-03-20T02:47:34.783Z,1017.10
2023-03-20T02:48:34.784Z,1017.11
2023-03-20T02:49:34.755Z,1017.17
2023-03-20T02:50:34.770Z,1017.14
2023-03-20T02:51:34.734Z,1017.09
2023-03-20T02:52:34.714Z,1017.06
2023-03-20T02:53:34.734Z,1017.03
2023-03-20T02:54:34.690Z,1017.04
2023-03-20T02:55:34.957Z,1017.05
2023-03-20T02:56:34.685Z,1017.05
2023-03-20T02:57:34.648Z,1017.04
2023-03-20T02:58:34.658Z,1017.00
2023-03-20T02:59:34.617Z,1016.99
2023-03-20T03:00:34.615Z,1016.99
2023-03-20T03:01:34.630Z,1016.99
2023-03-20T03:02:34.661Z,1017.08
2023-03-20T03:03:34.596Z,1017.08
2023-03-20T03:04:34.566Z,1017.10
2023-03-20T03:05:34.757Z,1017.08
2023-03-20T03:06:34.526Z,1017.12
2023-03-20T03:07:34.511Z,1017.14
2023-03-20T03:08:34.538Z,1017.20
2023-03-20T03:09:34.522Z,1017.19
2023-03-20T03:10:34.495Z,1017.19
2023-03-20T03:11:34.469Z,1017.14
2023-03-20T03:12:34.447Z,1017.08
2023-03-20T03:13:34.427Z,1017.11
2023-03-20T03:14:34.439Z,1017.05
2023-03-20T03:15:34.831Z,1017.02
2023-03-20T03:16:34.397Z,1016.97
2023-03-20T03:17:34.384Z,1016.92
2023-03-20T03:18:34.374Z,1016.85
2023-03-20T03:19:34.389Z,1016.76
2023-03-20T03:20:34.345Z,1016.70
2023-03-20T03:21:34.328Z,1016.66
2023-03-20T03:22:34.318Z,1016.71
2023-03-20T03:23:34.317Z,1016.73
2023-03-20T03:24:40.972Z,1016.76
2023-03-20T03:25:35.470Z,1016.72
2023-03-20T03:26:34.258Z,1016.70
2023-03-20T03:27:34.246Z,1016.67
2023-03-20T03:28:34.251Z,1016.69
2023-03-20T03:29:34.242Z,1016.69
2023-03-20T03:30:34.209Z,1016.77
2023-03-20T03:31:34.271Z,1016.83
2023-03-20T03:32:34.290Z,1016.87
2023-03-20T03:33:34.159Z,1016.94
2023-03-20T03:34:34.176Z,1016.96
2023-03-20T03:35:34.577Z,1016.91
2023-03-20T03:36:34.128Z,1016.91
2023-03-20T03:37:34.100Z,1016.90
2023-03-20T03:38:34.106Z,1016.94
2023-03-20T03:39:34.096Z,1016.99
2023-03-20T03:40:34.077Z,1017.00
2023-03-20T03:41:34.061Z,1017.02
2023-03-20T03:42:34.055Z,1017.07
2023-03-20T03:43:34.029Z,1017.11
2023-03-20T03:44:34.042Z,1017.15
2023-03-20T03:45:34.244Z,1017.14
2023-03-20T03:46:34.116Z,1017.09
2023-03-20T03:47:33.971Z,1017.10
2023-03-20T03:48:33.961Z,1017.04
2023-03-20T03:49:33.971Z,1017.05
2023-03-20T03:50:33.933Z,1017.08
2023-03-20T03:51:33.924Z,1017.07
2023-03-20T03:52:33.902Z,1017.08
2023-03-20T03:53:33.898Z,1017.07
2023-03-20T03:54:33.901Z,1017.11
2023-03-20T03:55:34.030Z,1017.12
2023-03-20T03:56:33.851Z,1017.10
2023-03-20T03:57:33.847Z,1017.15
2023-03-20T03:58:33.819Z,1017.15
2023-03-20T03:59:33.831Z,1017.12
2023-03-20T04:00:33.800Z,1017.04
2023-03-20T04:01:33.829Z,1017.04
2023-03-20T04:02:33.774Z,1017.05
2023-03-20T04:03:33.764Z,1017.00
2023-03-20T04:04:33.805Z,1016.95
2023-03-20T04:05:33.963Z,1017.01
2023-03-20T04:06:33.717Z,1017.00
2023-03-20T04:07:33.717Z,1017.03
2023-03-20T04:08:33.685Z,1017.09
2023-03-20T04:09:33.694Z,1017.17
2023-03-20T04:10:33.665Z,1017.12
2023-03-20T04:11:33.665Z,1017.15
2023-03-20T04:12:33.638Z,1017.11
2023-03-20T04:13:33.646Z,1017.07
2023-03-20T04:14:33.611Z,1017.07
2023-03-20T04:15:33.785Z,1017.10
2023-03-20T04:16:33.730Z,1017.07
2023-03-20T04:17:33.578Z,1017.05
2023-03-20T04:18:33.577Z,1016.98
2023-03-20T04:19:33.566Z,1016.96
2023-03-20T04:20:33.535Z,1016.93
2023-03-20T04:21:33.545Z,1016.95
2023-03-20T04:22:33.509Z,1016.96
2023-03-20T04:23:33.490Z,1016.90
2023-03-20T04:24:33.487Z,1016.86
2023-03-20T04:25:33.571Z,1016.85
2023-03-20T04:26:33.475Z,1016.84
2023-03-20T04:27:33.444Z,1016.84
2023-03-20T04:28:33.418Z,1016.83
2023-03-20T04:29:33.429Z,1016.76
2023-03-20T04:30:33.403Z,1016.72
2023-03-20T04:31:33.399Z,1016.75
2023-03-20T04:32:33.402Z,1016.77
2023-03-20T04:33:33.400Z,1016.75
2023-03-20T04:34:33.356Z,1016.77
2023-03-20T04:35:33.515Z,1016.72
2023-03-20T04:36:33.329Z,1016.81
2023-03-20T04:37:33.310Z,1016.82
2023-03-20T04:38:33.291Z,1016.82
2023-03-20T04:39:33.298Z,1016.83
2023-03-20T04:40:33.279Z,1016.80
2023-03-20T04:41:33.256Z,1016.82
2023-03-20T04:42:33.248Z,1016.88
2023-03-20T04:43:33.255Z,1016.86
2023-03-20T04:44:33.209Z,1016.84
2023-03-20T04:45:33.241Z,1016.81
2023-03-20T04:46:33.202Z,1016.84
2023-03-20T04:47:33.171Z,1016.82
2023-03-20T04:48:33.180Z,1016.81
2023-03-20T04:49:33.162Z,1016.85
2023-03-20T04:50:33.129Z,1016.83
2023-03-20T04:51:33.124Z,1016.91
2023-03-20T04:52:33.110Z,1016.95
2023-03-20T04:53:33.091Z,1016.94
2023-03-20T04:54:33.100Z,1016.91
2023-03-20T04:55:33.158Z,1016.89
2023-03-20T04:56:33.045Z,1016.84
2023-03-20T04:57:33.062Z,1016.84
2023-03-20T04:58:33.019Z,1016.81
2023-03-20T04:59:33.022Z,1016.80
2023-03-20T05:00:32.992Z,1016.80
2023-03-20T05:01:33.111Z,1016.83
2023-03-20T05:02:32.973Z,1016.83
2023-03-20T05:03:32.984Z,1016.83
2023-03-20T05:04:32.979Z,1016.82
2023-03-20T05:05:33.099Z,1016.85
2023-03-20T05:06:32.921Z,1016.80
2023-03-20T05:07:32.900Z,1016.82
2023-03-20T05:08:32.887Z,1016.78
2023-03-20T05:09:32.903Z,1016.82
2023-03-20T05:10:32.860Z,1016.78
2023-03-20T05:11:32.855Z,1016.83
2023-03-20T05:12:32.842Z,1016.76
2023-03-20T05:13:32.820Z,1016.75
2023-03-20T05:14:32.818Z,1016.79
2023-03-20T05:15:32.870Z,1016.74
2023-03-20T05:16:32.806Z,1016.78
2023-03-20T05:17:32.783Z,1016.86
2023-03-20T05:18:32.753Z,1016.83
2023-03-20T05:19:32.758Z,1016.85
2023-03-20T05:20:32.721Z,1016.83
2023-03-20T05:21:32.729Z,1016.83
2023-03-20T05:22:32.691Z,1016.84
2023-03-20T05:23:32.683Z,1016.91
2023-03-20T05:24:32.680Z,1016.87
2023-03-20T05:25:32.691Z,1016.85
2023-03-20T05:26:32.641Z,1016.85
2023-03-20T05:27:32.622Z,1016.82
2023-03-20T05:28:32.612Z,1016.81
2023-03-20T05:29:32.621Z,1016.84
2023-03-20T05:30:32.582Z,1016.87
2023-03-20T05:31:32.571Z,1016.83
2023-03-20T05:32:32.688Z,1016.84
2023-03-20T05:33:32.567Z,1016.90
2023-03-20T05:34:32.551Z,1016.88
2023-03-20T05:35:32.520Z,1016.88
2023-03-20T05:36:32.500Z,1016.89
2023-03-20T05:37:32.502Z,1016.95
2023-03-20T05:38:32.480Z,1016.88
2023-03-20T05:39:32.480Z,1016.92
2023-03-20T05:40:32.448Z,1016.87
2023-03-20T05:41:32.430Z,1016.94
2023-03-20T05:42:32.431Z,1016.90
2023-03-20T05:43:32.441Z,1016.88
2023-03-20T05:44:32.399Z,1016.93
2023-03-20T05:45:32.388Z,1016.86
2023-03-20T05:46:32.441Z,1016.86
2023-03-20T05:47:32.364Z,1016.86
2023-03-20T05:48:32.360Z,1016.91
2023-03-20T05:49:32.331Z,1017.02
2023-03-20T05:50:32.313Z,1016.92
2023-03-20T05:51:32.309Z,1016.91
2023-03-20T05:52:32.279Z,1016.86
2023-03-20T05:53:32.293Z,1016.91
2023-03-20T05:54:32.267Z,1016.93
2023-03-20T05:55:32.266Z,1016.94
2023-03-20T05:56:32.262Z,1016.92
2023-03-20T05:57:32.230Z,1016.95
2023-03-20T05:58:32.218Z,1016.92
2023-03-20T05:59:32.196Z,1016.90
2023-03-20T06:00:32.204Z,1016.90
2023-03-20T06:01:32.173Z,1016.88
2023-03-20T06:02:32.216Z,1016.85
2023-03-20T06:03:32.243Z,1016.84
2023-03-20T06:04:32.153Z,1016.90
2023-03-20T06:05:32.112Z,1016.90
2023-03-20T06:06:32.098Z,1016.94
2023-03-20T06:07:32.093Z,1016.94
2023-03-20T06:08:32.074Z,1016.93
2023-03-20T06:09:32.090Z,1016.94
2023-03-20T06:10:32.054Z,1016.94
2023-03-20T06:11:32.037Z,1016.90
2023-03-20T06:12:32.034Z,1016.84
2023-03-20T06:13:32.007Z,1016.86
2023-03-20T06:14:31.994Z,1016.88
2023-03-20T06:15:32.053Z,1016.82
2023-03-20T06:16:31.965Z,1016.79
2023-03-20T06:17:31.966Z,1016.84
2023-03-20T06:18:31.937Z,1016.83
2023-03-20T06:19:31.927Z,1016.82
2023-03-20T06:20:31.933Z,1016.78
2023-03-20T06:21:31.909Z,1016.79
2023-03-20T06:22:31.894Z,1016.81
2023-03-20T06:23:31.888Z,1016.82
2023-03-20T06:24:31.848Z,1016.83
2023-03-20T06:25:31.847Z,1016.86
2023-03-20T06:26:31.836Z,1016.86
2023-03-20T06:27:31.828Z,1016.87
2023-03-20T06:28:31.836Z,1016.81
2023-03-20T06:29:31.791Z,1016.85
2023-03-20T06:30:31.786Z,1016.92
2023-03-20T06:31:31.852Z,1016.92
2023-03-20T06:32:31.756Z,1016.89
2023-03-20T06:33:31.756Z,1016.88
2023-03-20T06:34:31.750Z,1016.89
2023-03-20T06:35:31.748Z,1016.92
2023-03-20T06:36:31.694Z,1016.84
2023-03-20T06:37:31.712Z,1016.87
2023-03-20T06:38:31.667Z,1016.89
2023-03-20T06:39:31.654Z,1016.89
2023-03-20T06:40:31.661Z,1016.90
2023-03-20T06:41:34.642Z,1016.97
2023-03-20T06:42:31.613Z,1016.94
2023-03-20T06:43:31.616Z,1016.90
2023-03-20T06:44:31.575Z,1016.91
2023-03-20T06:45:31.573Z,1016.94
2023-03-20T06:46:31.621Z,1016.97
2023-03-20T06:47:31.556Z,1016.99
2023-03-20T06:48:31.543Z,1017.04
2023-03-20T06:49:31.577Z,1017.06
2023-03-20T06:50:31.532Z,1017.07
2023-03-20T06:51:31.488Z,1017.09
2023-03-20T06:52:31.498Z,1017.21
2023-03-20T06:53:31.484Z,1017.23
2023-03-20T06:54:31.443Z,1017.26
2023-03-20T06:55:31.466Z,1017.29
2023-03-20T06:56:31.428Z,1017.26
2023-03-20T06:57:31.420Z,1017.30
2023-03-20T06:58:31.401Z,1017.32
2023-03-20T06:59:31.390Z,1017.31
2023-03-20T07:00:31.515Z,1017.30
2023-03-20T07:01:31.371Z,1017.34
2023-03-20T07:02:31.350Z,1017.38
2023-03-20T07:03:31.328Z,1017.37
2023-03-20T07:04:31.335Z,1017.35
2023-03-20T07:05:31.332Z,1017.34
2023-03-20T07:06:31.306Z,1017.36
2023-03-20T07:07:31.297Z,1017.39
2023-03-20T07:08:31.978Z,1017.42
2023-03-20T07:09:31.253Z,1017.40
2023-03-20T07:10:31.257Z,1017.37
2023-03-20T07:11:31.230Z,1017.38
2023-03-20T07:12:31.204Z,1017.39
2023-03-20T07:13:31.219Z,1017.45
2023-03-20T07:14:31.184Z,1017.44
2023-03-20T07:15:31.170Z,1017.48
2023-03-20T07:16:31.270Z,1017.47
2023-03-20T07:17:31.150Z,1017.46
2023-03-20T07:18:31.148Z,1017.46
2023-03-20T07:19:31.135Z,1017.51
2023-03-20T07:20:31.092Z,1017.52
2023-03-20T07:21:31.094Z,1017.49
2023-03-20T07:22:31.070Z,1017.51
2023-03-20T07:23:31.086Z,1017.48
2023-03-20T07:24:31.044Z,1017.53
2023-03-20T07:25:41.977Z,1017.49
2023-03-20T07:26:32.018Z,1017.53
2023-03-20T07:27:31.065Z,1017.47
2023-03-20T07:28:31.007Z,1017.51
2023-03-20T07:29:30.985Z,1017.50
2023-03-20T07:30:30.985Z,1017.44
2023-03-20T07:31:30.986Z,1017.48
2023-03-20T07:32:30.941Z,1017.45
2023-03-20T07:33:30.929Z,1017.45
2023-03-20T07:34:30.909Z,1017.45
2023-03-20T07:35:30.958Z,1017.44
2023-03-20T07:36:30.902Z,1017.38
2023-03-20T07:37:30.884Z,1017.44
2023-03-20T07:38:30.852Z,1017.39
2023-03-20T07:39:30.842Z,1017.46
2023-03-20T07:40:30.864Z,1017.48
2023-03-20T07:41:30.813Z,1017.52
2023-03-20T07:42:30.812Z,1017.50
2023-03-20T07:43:30.792Z,1017.54
2023-03-20T07:44:30.776Z,1017.53
2023-03-20T07:45:30.781Z,1017.48
2023-03-20T07:46:30.742Z,1017.46
2023-03-20T07:47:30.802Z,1017.50
2023-03-20T07:48:30.765Z,1017.53
2023-03-20T07:49:30.706Z,1017.49
2023-03-20T07:50:30.748Z,1017.53
2023-03-20T07:51:30.675Z,1017.54
2023-03-20T07:52:30.682Z,1017.57
2023-03-20T07:53:30.674Z,1017.53
2023-03-20T07:54:30.630Z,1017.58
2023-03-20T07:55:30.636Z,1017.58
2023-03-20T07:56:30.602Z,1017.58
2023-03-20T07:57:30.608Z,1017.62
2023-03-20T07:58:30.629Z,1017.62
2023-03-20T07:59:30.574Z,1017.62
2023-03-20T08:00:30.631Z,1017.64
2023-03-20T08:01:30.545Z,1017.67
2023-03-20T08:02:30.612Z,1017.68
2023-03-20T08:03:30.662Z,1017.66
2023-03-20T08:04:30.496Z,1017.67
2023-03-20T08:05:30.549Z,1017.71
2023-03-20T08:06:30.473Z,1017.69
2023-03-20T08:07:30.480Z,1017.69
2023-03-20T08:08:30.463Z,1017.67
2023-03-20T08:09:30.422Z,1017.67
2023-03-20T08:10:30.427Z,1017.68
2023-03-20T08:11:32.033Z,1017.69
2023-03-20T08:12:30.395Z,1017.65
2023-03-20T08:13:30.394Z,1017.68
2023-03-20T08:14:30.375Z,1017.66
2023-03-20T08:15:30.346Z,1017.71
2023-03-20T08:16:30.402Z,1017.68
2023-03-20T08:17:30.432Z,1017.68
2023-03-20T08:18:30.335Z,1017.67
2023-03-20T08:19:30.303Z,1017.64
2023-03-20T08:20:30.388Z,1017.67
2023-03-20T08:21:30.352Z,1017.70
2023-03-20T08:22:30.260Z,1017.70
2023-03-20T08:23:30.238Z,1017.70
2023-03-20T08:24:30.257Z,1017.65
2023-03-20T08:25:30.229Z,1017.63
2023-03-20T08:26:30.208Z,1017.67
2023-03-20T08:27:30.204Z,1017.63
2023-03-20T08:28:46.234Z,1017.66
2023-03-20T08:29:31.166Z,1017.67
2023-03-20T08:30:30.224Z,1017.70
2023-03-20T08:31:30.139Z,1017.69
2023-03-20T08:32:30.130Z,1017.69
2023-03-20T08:33:30.111Z,1017.70
2023-03-20T08:34:30.102Z,1017.73
2023-03-20T08:35:45.422Z,1017.79
2023-03-20T08:36:31.081Z,1017.76
2023-03-20T08:37:30.071Z,1017.73
2023-03-20T08:38:30.049Z,1017.74
2023-03-20T08:39:30.032Z,1017.74
2023-03-20T08:40:30.069Z,1017.75
2023-03-20T08:41:30.003Z,1017.74
2023-03-20T08:42:29.992Z,1017.73
2023-03-20T08:43:29.974Z,1017.74
2023-03-20T08:44:30.218Z,1017.68
2023-03-20T08:45:29.962Z,1017.68
2023-03-20T08:46:29.996Z,1017.62
2023-03-20T08:47:29.932Z,1017.72
2023-03-20T08:48:29.932Z,1017.72
2023-03-20T08:49:29.890Z,1017.66
2023-03-20T08:50:29.891Z,1017.66
2023-03-20T08:51:29.868Z,1017.67
2023-03-20T08:52:29.851Z,1017.68
2023-03-20T08:53:29.856Z,1017.70
2023-03-20T08:54:29.831Z,1017.68
2023-03-20T08:55:29.809Z,1017.68
2023-03-20T08:56:29.800Z,1017.66
2023-03-20T08:57:29.786Z,1017.71
2023-03-20T08:58:29.797Z,1017.70
2023-03-20T08:59:29.754Z,1017.74
2023-03-20T09:00:29.780Z,1017.71
2023-03-20T09:01:41.999Z,1017.72
2023-03-20T09:02:30.891Z,1017.77
2023-03-20T09:03:29.698Z,1017.76
2023-03-20T09:04:29.704Z,1017.72
2023-03-20T09:05:29.710Z,1017.76
2023-03-20T09:06:29.659Z,1017.77
2023-03-20T09:07:29.656Z,1017.73
2023-03-20T09:08:29.629Z,1017.78
2023-03-20T09:09:29.885Z,1017.78
2023-03-20T09:10:29.640Z,1017.77
2023-03-20T09:11:29.585Z,1017.79
2023-03-20T09:12:29.592Z,1017.76
2023-03-20T09:13:29.568Z,1017.76
2023-03-20T09:14:29.548Z,1017.76
2023-03-20T09:15:29.524Z,1017.72
2023-03-20T09:16:29.570Z,1017.74
2023-03-20T09:17:29.519Z,1017.75
2023-03-20T09:18:29.517Z,1017.70
2023-03-20T09:19:31.329Z,1017.72
2023-03-20T09:20:29.471Z,1017.69
2023-03-20T09:21:29.464Z,1017.70
2023-03-20T09:22:29.467Z,1017.71
2023-03-20T09:23:29.433Z,1017.67
2023-03-20T09:24:29.416Z,1017.68
2023-03-20T09:25:29.393Z,1017.69
2023-03-20T09:26:29.417Z,1017.71
2023-03-20T09:27:29.380Z,1017.72
2023-03-20T09:28:29.363Z,1017.75
2023-03-20T09:29:29.344Z,1017.74
2023-03-20T09:30:29.334Z,1017.71
2023-03-20T09:31:29.407Z,1017.73
2023-03-20T09:32:29.322Z,1017.73
2023-03-20T09:33:29.315Z,1017.71
2023-03-20T09:34:29.285Z,1017.71
2023-03-20T09:35:29.268Z,1017.76
2023-03-20T09:36:29.276Z,1017.73
2023-03-20T09:37:29.236Z,1017.67
2023-03-20T09:38:29.222Z,1017.72
2023-03-20T09:39:29.197Z,1017.70
2023-03-20T09:40:29.199Z,1017.64
2023-03-20T09:41:29.184Z,1017.69
2023-03-20T09:42:29.174Z,1017.66
2023-03-20T09:43:29.183Z,1017.66
2023-03-20T09:44:29.146Z,1017.71
2023-03-20T09:45:29.117Z,1017.70
2023-03-20T09:46:29.145Z,1017.66
2023-03-20T09:47:29.104Z,1017.65
2023-03-20T09:48:29.107Z,1017.66
2023-03-20T09:49:29.072Z,1017.61
2023-03-20T09:50:29.068Z,1017.64
2023-03-20T09:51:29.078Z,1017.60
2023-03-20T09:52:29.024Z,1017.64
2023-03-20T09:53:29.030Z,1017.62
2023-03-20T09:54:29.008Z,1017.59
2023-03-20T09:55:29.020Z,1017.61
2023-03-20T09:56:28.997Z,1017.63
2023-03-20T09:57:28.955Z,1017.62
2023-03-20T09:58:28.948Z,1017.69
2023-03-20T09:59:28.928Z,1017.66
2023-03-20T10:00:28.917Z,1017.59
2023-03-20T10:01:28.925Z,1017.72
2023-03-20T10:02:28.894Z,1017.65
2023-03-20T10:03:28.890Z,1017.75
2023-03-20T10:04:28.949Z,1017.74
2023-03-20T10:05:28.871Z,1017.73
2023-03-20T10:06:28.836Z,1017.76
2023-03-20T10:07:28.822Z,1017.76
2023-03-20T10:08:28.938Z,1017.74
2023-03-20T10:09:28.806Z,1017.75
2023-03-20T10:10:28.805Z,1017.74
2023-03-20T10:11:28.778Z,1017.73
2023-03-20T10:12:28.763Z,1017.70
2023-03-20T10:13:28.739Z,1017.72
2023-03-20T10:14:28.736Z,1017.69
2023-03-20T10:15:28.720Z,1017.70
2023-03-20T10:16:28.772Z,1017.65
2023-03-20T10:17:28.682Z,1017.63
2023-03-20T10:18:28.671Z,1017.67
2023-03-20T10:19:28.665Z,1017.68
2023-03-20T10:20:28.658Z,1017.69
2023-03-20T10:21:28.639Z,1017.66
2023-03-20T10:22:28.612Z,1017.65
2023-03-20T10:23:28.603Z,1017.63
2023-03-20T10:24:28.589Z,1017.70
2023-03-20T10:25:28.578Z,1017.72
2023-03-20T10:26:28.590Z,1017.73
2023-03-20T10:27:28.570Z,1017.73
2023-03-20T10:28:28.529Z,1017.70
2023-03-20T10:29:28.520Z,1017.73
2023-03-20T10:30:28.510Z,1017.69
2023-03-20T10:31:28.528Z,1017.71
2023-03-20T10:32:28.499Z,1017.69
2023-03-20T10:33:28.461Z,1017.69
2023-03-20T10:34:28.449Z,1017.67
2023-03-20T10:35:28.432Z,1017.74
2023-03-20T10:36:28.450Z,1017.76
2023-03-20T10:37:28.415Z,1017.68
2023-03-20T10:38:28.452Z,1017.70
2023-03-20T10:39:28.401Z,1017.73
2023-03-20T10:40:28.371Z,1017.69
2023-03-20T10:41:28.384Z,1017.72
2023-03-20T10:42:28.373Z,1017.72
2023-03-20T10:43:28.324Z,1017.69
2023-03-20T10:44:28.319Z,1017.73
2023-03-20T10:45:28.291Z,1017.66
2023-03-20T10:46:28.329Z,1017.66
2023-03-20T10:47:28.369Z,1017.67
2023-03-20T10:48:28.264Z,1017.59
2023-03-20T10:49:28.247Z,1017.61
2023-03-20T10:50:28.246Z,1017.65
2023-03-20T10:51:28.247Z,1017.64
2023-03-20T10:52:28.203Z,1017.61
2023-03-20T10:53:28.200Z,1017.62
2023-03-20T10:54:28.183Z,1017.62
2023-03-20T10:55:28.162Z,1017.60
2023-03-20T10:56:28.174Z,1017.60
2023-03-20T10:57:28.135Z,1017.58
2023-03-20T10:58:28.174Z,1017.58
2023-03-20T10:59:28.212Z,1017.55
2023-03-20T11:00:28.108Z,1017.54
2023-03-20T11:01:28.114Z,1017.56
2023-03-20T11:02:28.074Z,1017.55
2023-03-20T11:03:28.085Z,1017.53
2023-03-20T11:04:28.109Z,1017.51
2023-03-20T11:05:28.028Z,1017.53
2023-03-20T11:06:28.037Z,1017.49
2023-03-20T11:07:28.001Z,1017.49
2023-03-20T11:08:27.998Z,1017.47
2023-03-20T11:09:27.997Z,1017.46
2023-03-20T11:10:27.968Z,1017.47
2023-03-20T11:11:28.084Z,1017.46
2023-03-20T11:12:27.942Z,1017.41
2023-03-20T11:13:27.942Z,1017.45
2023-03-20T11:14:27.929Z,1017.40
2023-03-20T11:15:27.897Z,1017.35
2023-03-20T11:16:27.930Z,1017.45
2023-03-20T11:17:27.862Z,1017.39
2023-03-20T11:18:27.858Z,1017.40
2023-03-20T11:19:27.848Z,1017.35
2023-03-20T11:20:27.837Z,1017.33
2023-03-20T11:21:27.836Z,1017.40
2023-03-20T11:22:27.804Z,1017.40
2023-03-20T11:23:27.778Z,1017.34
2023-03-20T11:24:27.772Z,1017.33
2023-03-20T11:25:27.751Z,1017.30
2023-03-20T11:26:27.761Z,1017.33
2023-03-20T11:27:27.736Z,1017.31
2023-03-20T11:29:38.405Z,1017.36
2023-03-20T11:30:37.645Z,1017.29
2023-03-20T11:31:37.538Z,1017.27
2023-03-20T11:32:37.495Z,1017.26
2023-03-20T11:33:37.491Z,1017.22
2023-03-20T11:34:37.449Z,1017.25
2023-03-20T11:35:37.466Z,1017.21
2023-03-20T11:36:37.442Z,1017.34
2023-03-20T11:37:37.408Z,1017.26
2023-03-20T11:38:37.399Z,1017.33
2023-03-20T11:39:37.384Z,1017.26
2023-03-20T11:40:37.555Z,1017.37
2023-03-20T11:41:39.773Z,1017.32
2023-03-20T11:42:37.366Z,1017.39
2023-03-20T11:43:37.335Z,1017.34
2023-03-20T11:44:37.311Z,1017.28
2023-03-20T11:45:37.334Z,1017.29
2023-03-20T11:46:37.304Z,1017.29
2023-03-20T11:47:37.273Z,1017.26
2023-03-20T11:48:37.254Z,1017.28
2023-03-20T11:49:37.242Z,1017.32
2023-03-20T11:50:37.668Z,1017.31
2023-03-20T11:51:37.236Z,1017.28
2023-03-20T11:52:37.213Z,1017.32
2023-03-20T11:53:37.215Z,1017.33
2023-03-20T11:54:37.176Z,1017.40
2023-03-20T11:55:37.159Z,1017.39
2023-03-20T11:56:37.150Z,1017.33
2023-03-20T11:57:37.148Z,1017.39
2023-03-20T11:58:37.147Z,1017.36
2023-03-20T11:59:37.099Z,1017.37
2023-03-20T12:00:37.268Z,1017.39
2023-03-20T12:01:37.075Z,1017.36
2023-03-20T12:02:37.103Z,1017.36
2023-03-20T12:03:37.224Z,1017.36
2023-03-20T12:04:37.050Z,1017.34
2023-03-20T12:05:37.031Z,1017.42
2023-03-20T12:06:37.039Z,1017.42